• Join FlightAware (Why Join?)
  • Login
  • US Flag 
10:08AM EDT


 

Airport Tracker/Info


-or-


 

Live Flight TrackerFlight Track Log ✈ N373LD ✈ 31-Mar-2014 ✈ KBGD - KSSF

Flight Track Log - Related Links

Times and Time Zones

All times are in EDT time to prevent confusion due to time zone crossing. See the N373LD flight status page for this flight to view local times or setup timezone preferences in your user account.

Time Position Orientation Groundspeed Altitude Reporting Facility
EDT Latitude Longitude Course Direction KTS MPH feet Rate Location/Type
06:54PM 35.4453 -101.2636 157° South 167 192 12,700  Level Albuquerque Center
06:55PM 35.3981 -101.2400 158° South 176 203 13,700 660 Climbing Albuquerque Center
06:56PM 35.3447 -101.2119 157° South 197 227 14,100 960 Climbing Albuquerque Center
06:57PM 35.2764 -101.1772 157° South 217 250 15,700 1,020 Climbing Albuquerque Center
06:59PM 35.1756 -101.1258 157° South 197 227 17,400 960 Climbing Albuquerque Center
07:00PM 35.1239 -101.0978 156° South 201 231 18,800 1,020 Climbing Albuquerque Center
07:01PM 35.0750 -101.0722 157° South 196 226 19,600 900 Climbing Albuquerque Center
07:02PM 35.0208 -101.0447 157° South 202 232 20,700 1,020 Climbing Albuquerque Center
07:03PM 34.9694 -101.0181 157° South 204 235 21,800 1,020 Climbing Albuquerque Center
07:04PM 34.9164 -100.9911 157° South 204 235 22,900 1,200 Climbing Albuquerque Center
07:05PM 34.8542 -100.9600 158° South 203 234 24,300 1,020 Climbing Albuquerque Center
07:06PM 34.8008 -100.9322 157° South 204 235 25,100 780 Climbing Albuquerque Center
07:07PM 34.7442 -100.9031 157° South 213 245 25,900 780 Climbing Albuquerque Center
07:08PM 34.6861 -100.8728 157° South 220 253 26,700 480 Climbing Albuquerque Center
07:09PM 34.6219 -100.8411 158° South 239 275 27,000 120 Climbing Albuquerque Center
07:10PM 34.5531 -100.8061 157° South 259 298 27,000  Level Albuquerque Center
07:11PM 34.4794 -100.7692 158° South 279 321 27,000  Level Albuquerque Center
07:12PM 34.4058 -100.7308 157° South 285 328 27,000  Level Albuquerque Center
07:13PM 34.3178 -100.6858 157° South 285 328 27,000  Level Albuquerque Center
07:14PM 34.2447 -100.6486 157° South 285 328 27,000  Level Albuquerque Center
07:15PM 34.1728 -100.6131 158° South 284 327 27,000  Level Albuquerque Center
07:16PM 34.1003 -100.5783 158° South 283 326 27,000  Level Albuquerque Center
07:17PM 34.0147 -100.5344 157° South 281 323 27,000  Level Fort Worth Center
07:18PM 33.9458 -100.4983 156° South 281 323 27,000  Level Fort Worth Center
07:19PM 33.8592 -100.4578 159° South 279 321 27,000  Level Fort Worth Center
07:20PM 33.7872 -100.4222 158° South 279 321 27,000  Level Fort Worth Center
07:22PM 33.7150 -100.3864 158° South 280 322 27,000  Level Fort Worth Center
07:23PM 33.6433 -100.3500 157° South 280 322 27,000  Level Fort Worth Center
07:24PM 33.5708 -100.3144 158° South 280 322 27,000  Level Fort Worth Center
07:25PM 33.4967 -100.2767 157° South 280 322 27,000  Level Fort Worth Center
07:26PM 33.4114 -100.2356 158° South 280 322 27,000  Level Fort Worth Center
07:27PM 33.3386 -100.2011 158° South 280 322 27,000  Level Fort Worth Center
07:28PM 33.2664 -100.1650 157° South 280 322 27,000  Level Fort Worth Center
07:29PM 33.1944 -100.1300 158° South 280 322 27,000  Level Fort Worth Center
07:30PM 33.1225 -100.0953 158° South 280 322 27,000  Level Fort Worth Center
07:31PM 33.0500 -100.0597 158° South 280 322 27,000  Level Fort Worth Center
07:32PM 32.9631 -100.0172 158° South 280 322 27,000  Level Fort Worth Center
07:33PM 32.8897 -99.9811 158° South 280 322 27,000  Level Fort Worth Center
07:34PM 32.8169 -99.9456 158° South 281 323 27,000  Level Fort Worth Center
07:35PM 32.7431 -99.9089 157° South 281 323 27,000  Level Fort Worth Center
07:36PM 32.6697 -99.8722 157° South 281 323 27,000  Level Fort Worth Center
07:37PM 32.5878 -99.8339 158° South 283 326 27,000  Level Fort Worth Center
07:38PM 32.5153 -99.7981 157° South 286 329 27,000  Level Fort Worth Center
07:39PM 32.4439 -99.7633 158° South 279 321 27,000  Level Fort Worth Center
07:40PM 32.3711 -99.7278 158° South 281 323 27,000  Level Fort Worth Center
07:41PM 32.2839 -99.6853 158° South 281 323 27,000  Level Fort Worth Center
07:42PM 32.2122 -99.6511 158° South 281 323 27,000  Level Fort Worth Center
07:43PM 32.1400 -99.6153 157° South 281 323 27,000  Level Fort Worth Center
07:44PM 32.0681 -99.5817 158° South 280 322 27,000  Level Fort Worth Center
07:45PM 31.9944 -99.5461 158° South 280 322 27,000  Level Fort Worth Center
07:46PM 31.9217 -99.5114 158° South 281 323 27,000  Level Fort Worth Center
07:47PM 31.8333 -99.4686 158° South 283 326 27,000  Level Fort Worth Center
07:48PM 31.7603 -99.4336 158° South 283 326 27,000  Level Fort Worth Center
07:49PM 31.6881 -99.3989 158° South 283 326 27,000  Level Fort Worth Center
07:51PM 31.6117 -99.3639 159° South 281 323 27,000  Level Fort Worth Center
07:52PM 31.5450 -99.3314 157° South 280 322 27,000  Level Fort Worth Center
07:53PM 31.4683 -99.2958 158° South 280 322 27,000  Level Houston Center
07:54PM 31.3964 -99.2625 158° South 278 320 27,000  Level Houston Center
07:55PM 31.3256 -99.2278 157° South 278 320 27,000 -240 Level Houston Center
07:56PM 31.2372 -99.1867 158° South 284 327 26,500 -540 Descending Houston Center
07:57PM 31.1647 -99.1531 158° South 288 331 26,000 -540 Descending Houston Center
07:58PM 31.0861 -99.1158 158° South 290 334 25,500 -540 Descending Houston Center
07:59PM 31.0117 -99.0814 158° South 290 334 25,000 -540 Descending Houston Center
08:00PM 30.9386 -99.0456 157° South 287 330 24,500 -480 Descending Houston Center
08:01PM 30.8650 -99.0117 158° South 284 327 24,100 -300 Descending Houston Center
08:02PM 30.7817 -98.9722 158° South 276 318 24,000 -60 Descending Houston Center
08:03PM 30.7114 -98.9392 158° South 273 314 24,000  Level Houston Center
08:04PM 30.6411 -98.9078 159° South 272 313 24,000 -300 Level Houston Center
08:05PM 30.5678 -98.8728 158° South 277 319 23,500 -540 Descending Houston Center
08:06PM 30.4964 -98.8406 159° South 277 319 23,000 -540 Descending Houston Center
08:07PM 30.4150 -98.8036 159° South 275 316 22,500 -540 Descending Houston Center
08:08PM 30.3447 -98.7694 157° South 272 313 22,000 -540 Descending Houston Center
08:09PM 30.2689 -98.7353 159° South 273 314 21,500 -540 Descending Houston Center
08:10PM 30.1986 -98.7028 158° South 272 313 21,000 -540 Descending Houston Center
08:11PM 30.1225 -98.6858 169° South 261 300 20,500 -540 Descending Houston Center
08:11PM 30.1158 -98.6844 170° South 256 295 20,400 -540 Descending Houston Center
08:12PM 30.0536 -98.6678 167° South 255 293 20,000 -480 Descending Houston Center
08:12PM 30.0536 -98.6669 90° East 259 298 20,000 -540 Level Houston Center
08:13PM 29.9836 -98.6592 175° South 251 289 19,500 -540 Descending Houston Center
08:13PM 29.9789 -98.6569 158° South 253 291 19,500 -1,320 Level Houston Center
08:14PM 29.9133 -98.6481 173° South 251 289 18,200 -1,560 Descending Houston Center
08:14PM 29.9094 -98.6478 176° South 253 291 17,900 -1,980 Descending Houston Center
08:15PM 29.8497 -98.6414 175° South 232 267 16,200 -1,800 Descending Houston Center
08:15PM 29.8461 -98.6397 158° South 232 267 16,100 -1,920 Descending Houston Center
08:16PM 29.7903 -98.6339 175° South 212 244 14,300 -1,980 Descending Houston Center
08:16PM 29.7819 -98.6328 173° South 216 249 14,100 -1,680 Descending Houston Center
08:17PM 29.7256 -98.6392 186° South 221 254 12,600 -1,560 Descending Houston Center
08:17PM 29.7222 -98.6397 188° South 216 249 12,500 -1,500 Descending Houston Center
08:18PM 29.6656 -98.6486 188° South 219 252 11,100 -1,680 Descending Houston Center
08:18PM 29.6569 -98.6475 174° South 219 252 10,800 -1,620 Descending Houston Center
08:19PM 29.6122 -98.6167 149° Southeast 220 253 9,500 -1,560 Descending Houston Center
08:19PM 29.6058 -98.6103 139° Southeast 220 253 9,200 -1,740 Descending Houston Center
08:20PM 29.5606 -98.5794 149° Southeast 225 259 7,800 -1,680 Descending Houston Center
08:20PM 29.5489 -98.5706 146° Southeast 222 255 7,500 -1,320 Descending Houston Center
08:21PM 29.5069 -98.5450 152° Southeast 200 230 6,500 -1,080 Descending Houston Center
08:22PM 29.5000 -98.5397 147° Southeast 203 234 6,400 -420 Descending Houston Center
08:23PM 29.4528 -98.5103 151° Southeast 185 213 6,000 -1,020 Descending Houston Center
08:24PM 29.4061 -98.4831 153° Southeast 185 213 4,400 -1,920 Descending Houston Center
08:24PM 29.3694 -98.4656 157° South 185 213 2,600 -2,220 Descending Houston Center
08:25PM 29.3553 -98.4597 160° South 183 211 2,100 -1,140 Descending Houston Center
08:25PM 29.3633 -98.4422 62° Northeast 121 139 1,500 -780 Descending Houston Center
08:26PM 29.3733 -98.4472 336° Northwest 128 147 1,300 -300 Descending Houston Center
08:26PM 29.3639 -98.4711 246° West 112 129 1,200 -120 Descending Houston Center
08:27PM 29.3581 -98.4839 242° Southwest 121 139 1,200 -480 Level Houston Center
08:28PM 29.3375 -98.4683 147° Southeast 100 115 600 -600 Descending Houston Center
08:30PM 29.3333 -98.4667 180° South  Level FlightAware Approximate